Bonita Springs, Florida
Current Conditions -  °F | °C
As of 8:53 AM on Saturday 20 Dec 2014 (Local Time) from KRSW Reporting Station
Clear Clear  
Wind Chill: 61°   Ceiling: Unl
Heat Index: 61°   Visibility: 10mi
Dew Point: 57°   Wind: 14mph
Humidity: 87%   Direction: 90°E
Pressure: 30.11"   Gusts: 23mph
Location:  26.34°N, 81.78°W
Report Text: KRSW 201353Z 09012G20KT 030V140 10SM CLR 16/14 A3011 RMK AO2 SLP194 T01610139
Loading
Personal Weather Stations






























Interactive Weather Map New forecast layout! Learn more

10-Day Weather Forecast

Advertisements
Track Severe Weather on mobile